sensor_id;sensor_type;location;lat;lon;timestamp;P1;durP1;ratioP1;P2;durP2;ratioP2
50433;SDS011;36361;38.954;-9.002;2022-11-15T00:00:09;5.55;;;1.38;;
50433;SDS011;36361;38.954;-9.002;2022-11-15T00:01:28;8.20;;;1.20;;
50433;SDS011;36361;38.954;-9.002;2022-11-15T00:02:47;7.05;;;1.40;;
50433;SDS011;36361;38.954;-9.002;2022-11-15T00:05:28;7.07;;;1.15;;
50433;SDS011;36361;38.954;-9.002;2022-11-15T00:08:06;4.75;;;1.15;;
50433;SDS011;36361;38.954;-9.002;2022-11-15T00:09:26;4.85;;;0.60;;
50433;SDS011;36361;38.954;-9.002;2022-11-15T00:12:16;10.13;;;1.13;;
50433;SDS011;36361;38.954;-9.002;2022-11-15T00:13:39;6.35;;;1.40;;
50433;SDS011;36361;38.954;-9.002;2022-11-15T00:14:58;6.55;;;1.17;;
50433;SDS011;36361;38.954;-9.002;2022-11-15T00:17:36;4.88;;;0.70;;
50433;SDS011;36361;38.954;-9.002;2022-11-15T00:18:58;6.75;;;1.20;;
50433;SDS011;36361;38.954;-9.002;2022-11-15T00:20:17;6.20;;;0.82;;
50433;SDS011;36361;38.954;-9.002;2022-11-15T00:21:36;5.20;;;1.05;;
50433;SDS011;36361;38.954;-9.002;2022-11-15T00:22:58;3.65;;;0.82;;
50433;SDS011;36361;38.954;-9.002;2022-11-15T00:24:18;6.45;;;0.98;;
50433;SDS011;36361;38.954;-9.002;2022-11-15T00:25:37;6.38;;;1.50;;
50433;SDS011;36361;38.954;-9.002;2022-11-15T00:26:56;5.65;;;0.63;;
50433;SDS011;36361;38.954;-9.002;2022-11-15T00:29:34;3.75;;;0.55;;
50433;SDS011;36361;38.954;-9.002;2022-11-15T00:31:00;4.03;;;0.60;;
50433;SDS011;36361;38.954;-9.002;2022-11-15T00:32:20;5.97;;;0.80;;
50433;SDS011;36361;38.954;-9.002;2022-11-15T00:33:42;5.22;;;0.82;;
50433;SDS011;36361;38.954;-9.002;2022-11-15T00:35:01;4.57;;;0.60;;
50433;SDS011;36361;38.954;-9.002;2022-11-15T00:36:21;4.10;;;0.68;;
50433;SDS011;36361;38.954;-9.002;2022-11-15T00:37:40;3.00;;;0.52;;
50433;SDS011;36361;38.954;-9.002;2022-11-15T00:38:59;2.80;;;0.50;;
50433;SDS011;36361;38.954;-9.002;2022-11-15T00:41:37;2.67;;;0.40;;
50433;SDS011;36361;38.954;-9.002;2022-11-15T00:42:56;4.90;;;0.65;;
50433;SDS011;36361;38.954;-9.002;2022-11-15T00:44:15;6.97;;;0.60;;
50433;SDS011;36361;38.954;-9.002;2022-11-15T00:46:53;5.68;;;0.60;;
50433;SDS011;36361;38.954;-9.002;2022-11-15T00:49:31;3.38;;;0.65;;
50433;SDS011;36361;38.954;-9.002;2022-11-15T00:52:09;5.00;;;0.70;;
50433;SDS011;36361;38.954;-9.002;2022-11-15T00:54:47;4.22;;;0.63;;
50433;SDS011;36361;38.954;-9.002;2022-11-15T00:56:06;4.65;;;1.00;;
50433;SDS011;36361;38.954;-9.002;2022-11-15T00:57:25;3.67;;;0.52;;
50433;SDS011;36361;38.954;-9.002;2022-11-15T01:00:03;5.07;;;0.73;;
50433;SDS011;36361;38.954;-9.002;2022-11-15T01:01:23;4.85;;;0.77;;
50433;SDS011;36361;38.954;-9.002;2022-11-15T01:02:42;5.22;;;0.80;;
50433;SDS011;36361;38.954;-9.002;2022-11-15T01:05:20;7.63;;;0.65;;
50433;SDS011;36361;38.954;-9.002;2022-11-15T01:06:39;4.60;;;0.43;;
50433;SDS011;36361;38.954;-9.002;2022-11-15T01:07:58;5.68;;;0.50;;
50433;SDS011;36361;38.954;-9.002;2022-11-15T01:10:36;7.10;;;0.68;;
50433;SDS011;36361;38.954;-9.002;2022-11-15T01:11:56;5.60;;;0.52;;
50433;SDS011;36361;38.954;-9.002;2022-11-15T01:13:21;7.43;;;1.17;;
50433;SDS011;36361;38.954;-9.002;2022-11-15T01:15:59;6.10;;;0.80;;
50433;SDS011;36361;38.954;-9.002;2022-11-15T01:17:24;3.60;;;0.40;;
50433;SDS011;36361;38.954;-9.002;2022-11-15T01:18:44;6.25;;;0.40;;
50433;SDS011;36361;38.954;-9.002;2022-11-15T01:20:04;5.63;;;1.20;;
50433;SDS011;36361;38.954;-9.002;2022-11-15T01:21:23;5.15;;;0.90;;
50433;SDS011;36361;38.954;-9.002;2022-11-15T01:24:01;6.10;;;0.60;;
50433;SDS011;36361;38.954;-9.002;2022-11-15T01:26:39;11.80;;;1.25;;
50433;SDS011;36361;38.954;-9.002;2022-11-15T01:27:58;5.28;;;0.75;;
50433;SDS011;36361;38.954;-9.002;2022-11-15T01:30:36;8.18;;;0.55;;
50433;SDS011;36361;38.954;-9.002;2022-11-15T01:31:55;5.45;;;0.43;;
50433;SDS011;36361;38.954;-9.002;2022-11-15T01:33:17;4.13;;;0.52;;
50433;SDS011;36361;38.954;-9.002;2022-11-15T01:34:37;5.85;;;1.05;;
50433;SDS011;36361;38.954;-9.002;2022-11-15T01:37:14;8.00;;;0.80;;
50433;SDS011;36361;38.954;-9.002;2022-11-15T01:38:34;9.48;;;0.88;;
50433;SDS011;36361;38.954;-9.002;2022-11-15T01:39:53;3.22;;;0.70;;
50433;SDS011;36361;38.954;-9.002;2022-11-15T01:41:14;4.38;;;0.88;;
50433;SDS011;36361;38.954;-9.002;2022-11-15T01:42:35;5.22;;;0.82;;
50433;SDS011;36361;38.954;-9.002;2022-11-15T01:43:56;6.18;;;0.50;;
50433;SDS011;36361;38.954;-9.002;2022-11-15T01:45:16;3.40;;;0.85;;
50433;SDS011;36361;38.954;-9.002;2022-11-15T01:46:36;6.75;;;0.82;;
50433;SDS011;36361;38.954;-9.002;2022-11-15T01:48:00;7.25;;;0.75;;
50433;SDS011;36361;38.954;-9.002;2022-11-15T01:49:20;5.93;;;0.73;;
50433;SDS011;36361;38.954;-9.002;2022-11-15T01:50:41;7.72;;;1.25;;
50433;SDS011;36361;38.954;-9.002;2022-11-15T01:52:01;7.13;;;0.73;;
50433;SDS011;36361;38.954;-9.002;2022-11-15T01:53:23;6.88;;;0.65;;
50433;SDS011;36361;38.954;-9.002;2022-11-15T01:54:45;7.88;;;0.98;;
50433;SDS011;36361;38.954;-9.002;2022-11-15T01:56:06;8.63;;;1.17;;
50433;SDS011;36361;38.954;-9.002;2022-11-15T01:57:29;8.27;;;0.77;;
50433;SDS011;36361;38.954;-9.002;2022-11-15T01:58:49;6.75;;;0.73;;
50433;SDS011;36361;38.954;-9.002;2022-11-15T02:00:10;6.72;;;1.15;;
50433;SDS011;36361;38.954;-9.002;2022-11-15T02:01:30;7.95;;;1.00;;
50433;SDS011;36361;38.954;-9.002;2022-11-15T02:02:52;4.25;;;0.75;;
50433;SDS011;36361;38.954;-9.002;2022-11-15T02:04:16;7.53;;;0.88;;
50433;SDS011;36361;38.954;-9.002;2022-11-15T02:05:46;4.13;;;1.00;;
50433;SDS011;36361;38.954;-9.002;2022-11-15T02:08:26;5.18;;;1.23;;
50433;SDS011;36361;38.954;-9.002;2022-11-15T02:09:46;5.60;;;0.70;;
50433;SDS011;36361;38.954;-9.002;2022-11-15T02:11:08;4.47;;;0.80;;
50433;SDS011;36361;38.954;-9.002;2022-11-15T02:12:28;6.55;;;1.20;;
50433;SDS011;36361;38.954;-9.002;2022-11-15T02:13:47;7.43;;;1.17;;
50433;SDS011;36361;38.954;-9.002;2022-11-15T02:15:07;6.07;;;0.80;;
50433;SDS011;36361;38.954;-9.002;2022-11-15T02:18:23;4.82;;;0.60;;
50433;SDS011;36361;38.954;-9.002;2022-11-15T02:21:50;6.43;;;1.33;;
50433;SDS011;36361;38.954;-9.002;2022-11-15T02:30:18;6.93;;;0.90;;
50433;SDS011;36361;38.954;-9.002;2022-11-15T02:35:29;12.07;;;1.40;;
50433;SDS011;36361;38.954;-9.002;2022-11-15T02:40:16;6.15;;;1.27;;
50433;SDS011;36361;38.954;-9.002;2022-11-15T02:42:02;5.97;;;1.17;;
50433;SDS011;36361;38.954;-9.002;2022-11-15T02:43:47;11.15;;;1.48;;
50433;SDS011;36361;38.954;-9.002;2022-11-15T02:45:23;7.95;;;0.90;;
50433;SDS011;36361;38.954;-9.002;2022-11-15T02:46:50;7.50;;;1.25;;
50433;SDS011;36361;38.954;-9.002;2022-11-15T02:48:31;9.10;;;1.80;;
50433;SDS011;36361;38.954;-9.002;2022-11-15T02:49:52;6.30;;;0.90;;
50433;SDS011;36361;38.954;-9.002;2022-11-15T02:51:13;8.38;;;1.35;;
50433;SDS011;36361;38.954;-9.002;2022-11-15T02:52:33;7.97;;;1.15;;
50433;SDS011;36361;38.954;-9.002;2022-11-15T02:53:55;5.72;;;0.90;;
50433;SDS011;36361;38.954;-9.002;2022-11-15T02:55:27;6.82;;;1.27;;
50433;SDS011;36361;38.954;-9.002;2022-11-15T02:56:50;9.35;;;1.23;;
50433;SDS011;36361;38.954;-9.002;2022-11-15T03:04:55;9.68;;;1.55;;
50433;SDS011;36361;38.954;-9.002;2022-11-15T03:12:46;10.13;;;2.08;;
50433;SDS011;36361;38.954;-9.002;2022-11-15T03:15:54;7.95;;;1.60;;
50433;SDS011;36361;38.954;-9.002;2022-11-15T03:22:03;13.65;;;1.17;;
50433;SDS011;36361;38.954;-9.002;2022-11-15T03:23:24;12.50;;;1.75;;
50433;SDS011;36361;38.954;-9.002;2022-11-15T03:24:50;10.10;;;1.58;;
50433;SDS011;36361;38.954;-9.002;2022-11-15T03:26:12;9.23;;;1.67;;
50433;SDS011;36361;38.954;-9.002;2022-11-15T03:27:36;10.70;;;1.55;;
50433;SDS011;36361;38.954;-9.002;2022-11-15T03:30:02;9.65;;;1.52;;
50433;SDS011;36361;38.954;-9.002;2022-11-15T03:30:56;15.82;;;1.55;;
50433;SDS011;36361;38.954;-9.002;2022-11-15T03:32:40;14.48;;;2.03;;
50433;SDS011;36361;38.954;-9.002;2022-11-15T03:33:58;9.48;;;1.50;;
50433;SDS011;36361;38.954;-9.002;2022-11-15T03:35:22;11.20;;;1.25;;
50433;SDS011;36361;38.954;-9.002;2022-11-15T03:36:43;9.93;;;1.55;;
50433;SDS011;36361;38.954;-9.002;2022-11-15T03:38:11;9.45;;;1.23;;
50433;SDS011;36361;38.954;-9.002;2022-11-15T03:39:38;9.23;;;1.40;;
50433;SDS011;36361;38.954;-9.002;2022-11-15T03:41:01;11.95;;;1.88;;
50433;SDS011;36361;38.954;-9.002;2022-11-15T03:42:27;7.53;;;1.00;;
50433;SDS011;36361;38.954;-9.002;2022-11-15T03:45:27;10.32;;;1.27;;
50433;SDS011;36361;38.954;-9.002;2022-11-15T03:47:13;9.82;;;1.52;;
50433;SDS011;36361;38.954;-9.002;2022-11-15T03:48:35;11.00;;;1.55;;
50433;SDS011;36361;38.954;-9.002;2022-11-15T03:50:20;9.15;;;1.50;;
50433;SDS011;36361;38.954;-9.002;2022-11-15T03:51:40;15.77;;;1.80;;
50433;SDS011;36361;38.954;-9.002;2022-11-15T03:52:59;7.07;;;1.15;;
50433;SDS011;36361;38.954;-9.002;2022-11-15T03:54:19;10.35;;;1.45;;
50433;SDS011;36361;38.954;-9.002;2022-11-15T03:55:38;12.35;;;1.20;;
50433;SDS011;36361;38.954;-9.002;2022-11-15T03:56:58;11.35;;;1.52;;
50433;SDS011;36361;38.954;-9.002;2022-11-15T03:58:17;11.45;;;1.40;;
50433;SDS011;36361;38.954;-9.002;2022-11-15T04:00:55;16.10;;;2.33;;
50433;SDS011;36361;38.954;-9.002;2022-11-15T04:02:14;14.75;;;2.35;;
50433;SDS011;36361;38.954;-9.002;2022-11-15T04:03:34;12.02;;;1.80;;
50433;SDS011;36361;38.954;-9.002;2022-11-15T04:06:12;16.08;;;1.73;;
50433;SDS011;36361;38.954;-9.002;2022-11-15T04:07:31;9.30;;;1.45;;
50433;SDS011;36361;38.954;-9.002;2022-11-15T04:08:50;7.85;;;1.38;;
50433;SDS011;36361;38.954;-9.002;2022-11-15T04:11:29;11.55;;;1.98;;
50433;SDS011;36361;38.954;-9.002;2022-11-15T04:12:49;11.75;;;1.83;;
50433;SDS011;36361;38.954;-9.002;2022-11-15T04:15:27;11.13;;;1.73;;
50433;SDS011;36361;38.954;-9.002;2022-11-15T04:16:47;16.33;;;1.90;;
50433;SDS011;36361;38.954;-9.002;2022-11-15T04:19:25;15.52;;;1.80;;
50433;SDS011;36361;38.954;-9.002;2022-11-15T04:21:03;14.18;;;1.73;;
50433;SDS011;36361;38.954;-9.002;2022-11-15T04:22:41;11.07;;;1.70;;
50433;SDS011;36361;38.954;-9.002;2022-11-15T04:24:19;14.88;;;1.70;;
50433;SDS011;36361;38.954;-9.002;2022-11-15T04:25:38;11.88;;;1.95;;
50433;SDS011;36361;38.954;-9.002;2022-11-15T04:27:00;13.23;;;2.03;;
50433;SDS011;36361;38.954;-9.002;2022-11-15T04:28:20;12.88;;;1.67;;
50433;SDS011;36361;38.954;-9.002;2022-11-15T04:29:39;13.48;;;2.13;;
50433;SDS011;36361;38.954;-9.002;2022-11-15T04:32:17;20.45;;;2.38;;
50433;SDS011;36361;38.954;-9.002;2022-11-15T04:33:36;13.88;;;1.77;;
50433;SDS011;36361;38.954;-9.002;2022-11-15T04:34:55;7.47;;;1.15;;
50433;SDS011;36361;38.954;-9.002;2022-11-15T04:36:14;13.48;;;1.75;;
50433;SDS011;36361;38.954;-9.002;2022-11-15T04:37:53;15.73;;;2.15;;
50433;SDS011;36361;38.954;-9.002;2022-11-15T04:39:13;11.63;;;2.38;;
50433;SDS011;36361;38.954;-9.002;2022-11-15T04:41:51;10.85;;;2.25;;
50433;SDS011;36361;38.954;-9.002;2022-11-15T04:43:19;15.55;;;1.65;;
50433;SDS011;36361;38.954;-9.002;2022-11-15T04:44:38;9.38;;;1.92;;
50433;SDS011;36361;38.954;-9.002;2022-11-15T04:45:58;10.80;;;2.00;;
50433;SDS011;36361;38.954;-9.002;2022-11-15T04:48:35;13.82;;;2.00;;
50433;SDS011;36361;38.954;-9.002;2022-11-15T04:51:13;11.52;;;1.63;;
50433;SDS011;36361;38.954;-9.002;2022-11-15T04:52:32;9.82;;;2.20;;
50433;SDS011;36361;38.954;-9.002;2022-11-15T04:55:10;13.65;;;1.70;;
50433;SDS011;36361;38.954;-9.002;2022-11-15T04:56:29;12.93;;;1.92;;
50433;SDS011;36361;38.954;-9.002;2022-11-15T04:59:15;10.15;;;1.67;;
50433;SDS011;36361;38.954;-9.002;2022-11-15T05:00:34;12.90;;;1.55;;
50433;SDS011;36361;38.954;-9.002;2022-11-15T05:01:53;13.25;;;1.40;;
50433;SDS011;36361;38.954;-9.002;2022-11-15T05:04:50;13.20;;;2.03;;
50433;SDS011;36361;38.954;-9.002;2022-11-15T05:07:28;8.20;;;1.85;;
50433;SDS011;36361;38.954;-9.002;2022-11-15T05:08:47;10.45;;;1.73;;
50433;SDS011;36361;38.954;-9.002;2022-11-15T05:10:06;12.77;;;2.83;;
50433;SDS011;36361;38.954;-9.002;2022-11-15T05:11:26;11.80;;;1.58;;
50433;SDS011;36361;38.954;-9.002;2022-11-15T05:12:48;17.63;;;2.20;;
50433;SDS011;36361;38.954;-9.002;2022-11-15T05:14:07;13.63;;;1.83;;
50433;SDS011;36361;38.954;-9.002;2022-11-15T05:15:25;11.05;;;1.38;;
50433;SDS011;36361;38.954;-9.002;2022-11-15T05:18:03;10.70;;;1.80;;
50433;SDS011;36361;38.954;-9.002;2022-11-15T05:19:23;15.85;;;2.17;;
50433;SDS011;36361;38.954;-9.002;2022-11-15T05:22:00;16.13;;;2.40;;
50433;SDS011;36361;38.954;-9.002;2022-11-15T05:23:20;13.63;;;2.40;;
50433;SDS011;36361;38.954;-9.002;2022-11-15T05:24:39;9.10;;;1.85;;
50433;SDS011;36361;38.954;-9.002;2022-11-15T05:25:59;13.00;;;1.85;;
50433;SDS011;36361;38.954;-9.002;2022-11-15T05:27:22;10.32;;;1.83;;
50433;SDS011;36361;38.954;-9.002;2022-11-15T05:28:41;10.48;;;1.27;;
50433;SDS011;36361;38.954;-9.002;2022-11-15T05:31:19;11.55;;;1.70;;
50433;SDS011;36361;38.954;-9.002;2022-11-15T05:32:38;11.00;;;1.92;;
50433;SDS011;36361;38.954;-9.002;2022-11-15T05:33:58;14.52;;;1.83;;
50433;SDS011;36361;38.954;-9.002;2022-11-15T05:35:20;14.77;;;1.92;;
50433;SDS011;36361;38.954;-9.002;2022-11-15T05:36:50;11.70;;;1.85;;
50433;SDS011;36361;38.954;-9.002;2022-11-15T05:38:09;11.23;;;2.00;;
50433;SDS011;36361;38.954;-9.002;2022-11-15T05:39:28;13.75;;;2.08;;
50433;SDS011;36361;38.954;-9.002;2022-11-15T05:40:48;13.57;;;2.10;;
50433;SDS011;36361;38.954;-9.002;2022-11-15T05:42:09;13.40;;;1.40;;
50433;SDS011;36361;38.954;-9.002;2022-11-15T05:43:30;10.73;;;1.52;;
50433;SDS011;36361;38.954;-9.002;2022-11-15T05:44:54;15.40;;;2.40;;
50433;SDS011;36361;38.954;-9.002;2022-11-15T05:46:15;18.48;;;2.13;;
50433;SDS011;36361;38.954;-9.002;2022-11-15T05:47:36;17.67;;;2.05;;
50433;SDS011;36361;38.954;-9.002;2022-11-15T05:48:58;20.17;;;2.33;;
50433;SDS011;36361;38.954;-9.002;2022-11-15T05:50:18;12.18;;;2.03;;
50433;SDS011;36361;38.954;-9.002;2022-11-15T05:51:38;11.07;;;1.88;;
50433;SDS011;36361;38.954;-9.002;2022-11-15T05:52:58;26.67;;;3.15;;
50433;SDS011;36361;38.954;-9.002;2022-11-15T05:54:18;16.98;;;2.95;;
50433;SDS011;36361;38.954;-9.002;2022-11-15T05:55:40;12.35;;;1.73;;
50433;SDS011;36361;38.954;-9.002;2022-11-15T05:57:06;15.43;;;3.08;;
50433;SDS011;36361;38.954;-9.002;2022-11-15T05:58:25;12.63;;;1.90;;
50433;SDS011;36361;38.954;-9.002;2022-11-15T05:59:45;14.30;;;1.50;;
50433;SDS011;36361;38.954;-9.002;2022-11-15T06:01:04;15.77;;;2.22;;
50433;SDS011;36361;38.954;-9.002;2022-11-15T06:02:23;16.83;;;1.83;;
50433;SDS011;36361;38.954;-9.002;2022-11-15T06:03:43;20.27;;;2.67;;
50433;SDS011;36361;38.954;-9.002;2022-11-15T06:05:02;17.92;;;2.28;;
50433;SDS011;36361;38.954;-9.002;2022-11-15T06:06:22;12.90;;;1.88;;
50433;SDS011;36361;38.954;-9.002;2022-11-15T06:07:41;12.00;;;1.70;;
50433;SDS011;36361;38.954;-9.002;2022-11-15T06:09:01;15.80;;;2.63;;
50433;SDS011;36361;38.954;-9.002;2022-11-15T06:10:20;11.00;;;2.35;;
50433;SDS011;36361;38.954;-9.002;2022-11-15T06:11:39;22.52;;;3.25;;
50433;SDS011;36361;38.954;-9.002;2022-11-15T06:13:03;17.42;;;2.45;;
50433;SDS011;36361;38.954;-9.002;2022-11-15T06:14:23;14.05;;;2.15;;
50433;SDS011;36361;38.954;-9.002;2022-11-15T06:15:42;19.67;;;2.58;;
50433;SDS011;36361;38.954;-9.002;2022-11-15T06:17:01;17.73;;;2.83;;
50433;SDS011;36361;38.954;-9.002;2022-11-15T06:18:21;22.10;;;2.97;;
50433;SDS011;36361;38.954;-9.002;2022-11-15T06:20:59;11.15;;;1.88;;
50433;SDS011;36361;38.954;-9.002;2022-11-15T06:22:18;18.27;;;2.55;;
50433;SDS011;36361;38.954;-9.002;2022-11-15T06:24:56;14.23;;;2.33;;
50433;SDS011;36361;38.954;-9.002;2022-11-15T06:27:35;14.15;;;2.17;;
50433;SDS011;36361;38.954;-9.002;2022-11-15T06:30:13;17.30;;;1.88;;
50433;SDS011;36361;38.954;-9.002;2022-11-15T06:31:33;11.50;;;2.25;;
50433;SDS011;36361;38.954;-9.002;2022-11-15T06:32:59;14.40;;;2.55;;
50433;SDS011;36361;38.954;-9.002;2022-11-15T06:34:21;15.50;;;2.75;;
50433;SDS011;36361;38.954;-9.002;2022-11-15T06:35:41;13.05;;;2.28;;
50433;SDS011;36361;38.954;-9.002;2022-11-15T06:38:21;14.70;;;2.20;;
50433;SDS011;36361;38.954;-9.002;2022-11-15T06:41:03;20.20;;;2.47;;
50433;SDS011;36361;38.954;-9.002;2022-11-15T06:42:27;12.73;;;1.88;;
50433;SDS011;36361;38.954;-9.002;2022-11-15T06:43:46;13.52;;;2.55;;
50433;SDS011;36361;38.954;-9.002;2022-11-15T06:46:24;13.95;;;2.50;;
50433;SDS011;36361;38.954;-9.002;2022-11-15T06:47:44;12.25;;;1.92;;
50433;SDS011;36361;38.954;-9.002;2022-11-15T06:49:05;14.38;;;2.17;;
50433;SDS011;36361;38.954;-9.002;2022-11-15T06:50:24;14.95;;;2.38;;
50433;SDS011;36361;38.954;-9.002;2022-11-15T06:51:43;14.50;;;2.08;;
50433;SDS011;36361;38.954;-9.002;2022-11-15T06:53:03;13.38;;;2.45;;
50433;SDS011;36361;38.954;-9.002;2022-11-15T06:54:23;15.18;;;2.10;;
50433;SDS011;36361;38.954;-9.002;2022-11-15T06:57:04;13.48;;;2.13;;
50433;SDS011;36361;38.954;-9.002;2022-11-15T06:58:23;13.95;;;2.00;;
50433;SDS011;36361;38.954;-9.002;2022-11-15T06:59:42;17.17;;;2.55;;
50433;SDS011;36361;38.954;-9.002;2022-11-15T07:01:06;10.65;;;2.20;;
50433;SDS011;36361;38.954;-9.002;2022-11-15T07:02:27;12.43;;;1.92;;
50433;SDS011;36361;38.954;-9.002;2022-11-15T07:03:47;11.93;;;1.88;;
50433;SDS011;36361;38.954;-9.002;2022-11-15T07:06:25;15.13;;;2.55;;
50433;SDS011;36361;38.954;-9.002;2022-11-15T07:07:50;12.13;;;2.03;;
50433;SDS011;36361;38.954;-9.002;2022-11-15T07:09:10;12.05;;;1.67;;
50433;SDS011;36361;38.954;-9.002;2022-11-15T07:10:29;10.93;;;2.10;;
50433;SDS011;36361;38.954;-9.002;2022-11-15T07:11:48;11.55;;;1.85;;
50433;SDS011;36361;38.954;-9.002;2022-11-15T07:14:26;9.30;;;1.48;;
50433;SDS011;36361;38.954;-9.002;2022-11-15T07:17:04;9.15;;;1.40;;
50433;SDS011;36361;38.954;-9.002;2022-11-15T07:18:23;15.80;;;2.38;;
50433;SDS011;36361;38.954;-9.002;2022-11-15T07:19:42;13.98;;;1.70;;
50433;SDS011;36361;38.954;-9.002;2022-11-15T07:21:02;16.35;;;1.95;;
50433;SDS011;36361;38.954;-9.002;2022-11-15T07:22:23;15.02;;;1.60;;
50433;SDS011;36361;38.954;-9.002;2022-11-15T07:25:00;16.80;;;2.40;;
50433;SDS011;36361;38.954;-9.002;2022-11-15T07:26:19;14.02;;;2.25;;
50433;SDS011;36361;38.954;-9.002;2022-11-15T07:27:38;13.43;;;1.75;;
50433;SDS011;36361;38.954;-9.002;2022-11-15T07:30:22;21.08;;;2.28;;
50433;SDS011;36361;38.954;-9.002;2022-11-15T07:31:42;11.38;;;1.65;;
50433;SDS011;36361;38.954;-9.002;2022-11-15T07:34:19;13.15;;;2.13;;
50433;SDS011;36361;38.954;-9.002;2022-11-15T07:35:39;13.57;;;1.80;;
50433;SDS011;36361;38.954;-9.002;2022-11-15T07:38:17;12.15;;;1.63;;
50433;SDS011;36361;38.954;-9.002;2022-11-15T07:39:39;17.48;;;2.33;;
50433;SDS011;36361;38.954;-9.002;2022-11-15T07:42:18;12.77;;;1.42;;
50433;SDS011;36361;38.954;-9.002;2022-11-15T07:43:56;14.40;;;2.13;;
50433;SDS011;36361;38.954;-9.002;2022-11-15T07:45:16;9.45;;;1.80;;
50433;SDS011;36361;38.954;-9.002;2022-11-15T07:46:35;8.38;;;1.50;;
50433;SDS011;36361;38.954;-9.002;2022-11-15T07:47:54;13.98;;;1.75;;
50433;SDS011;36361;38.954;-9.002;2022-11-15T07:49:14;24.88;;;2.58;;
50433;SDS011;36361;38.954;-9.002;2022-11-15T07:51:52;11.93;;;1.45;;
50433;SDS011;36361;38.954;-9.002;2022-11-15T07:54:30;14.65;;;2.20;;
50433;SDS011;36361;38.954;-9.002;2022-11-15T07:55:49;10.70;;;1.50;;
50433;SDS011;36361;38.954;-9.002;2022-11-15T07:58:28;9.52;;;1.60;;
50433;SDS011;36361;38.954;-9.002;2022-11-15T08:01:07;11.80;;;2.38;;
50433;SDS011;36361;38.954;-9.002;2022-11-15T08:02:28;15.63;;;2.03;;
50433;SDS011;36361;38.954;-9.002;2022-11-15T08:05:05;11.02;;;2.17;;
50433;SDS011;36361;38.954;-9.002;2022-11-15T08:06:25;14.70;;;1.90;;
50433;SDS011;36361;38.954;-9.002;2022-11-15T08:09:03;10.27;;;1.45;;
50433;SDS011;36361;38.954;-9.002;2022-11-15T08:10:22;17.20;;;2.83;;
50433;SDS011;36361;38.954;-9.002;2022-11-15T08:13:00;15.50;;;3.00;;
50433;SDS011;36361;38.954;-9.002;2022-11-15T08:14:21;13.75;;;1.83;;
50433;SDS011;36361;38.954;-9.002;2022-11-15T08:15:41;13.18;;;2.85;;
50433;SDS011;36361;38.954;-9.002;2022-11-15T08:17:01;14.13;;;2.55;;
50433;SDS011;36361;38.954;-9.002;2022-11-15T08:18:21;18.88;;;2.47;;
50433;SDS011;36361;38.954;-9.002;2022-11-15T08:19:40;13.15;;;1.85;;
50433;SDS011;36361;38.954;-9.002;2022-11-15T08:21:02;15.48;;;2.30;;
50433;SDS011;36361;38.954;-9.002;2022-11-15T08:22:21;16.17;;;2.10;;
50433;SDS011;36361;38.954;-9.002;2022-11-15T08:23:41;16.35;;;2.45;;
50433;SDS011;36361;38.954;-9.002;2022-11-15T08:26:18;14.45;;;2.78;;
50433;SDS011;36361;38.954;-9.002;2022-11-15T08:27:38;6.10;;;1.23;;
50433;SDS011;36361;38.954;-9.002;2022-11-15T08:28:57;10.02;;;1.45;;
50433;SDS011;36361;38.954;-9.002;2022-11-15T08:30:16;16.08;;;1.88;;
50433;SDS011;36361;38.954;-9.002;2022-11-15T08:31:36;11.18;;;1.95;;
50433;SDS011;36361;38.954;-9.002;2022-11-15T08:32:56;18.15;;;1.95;;
50433;SDS011;36361;38.954;-9.002;2022-11-15T08:34:16;13.85;;;2.28;;
50433;SDS011;36361;38.954;-9.002;2022-11-15T08:35:35;13.18;;;1.60;;
50433;SDS011;36361;38.954;-9.002;2022-11-15T08:38:13;8.27;;;1.25;;
50433;SDS011;36361;38.954;-9.002;2022-11-15T08:39:32;11.40;;;2.17;;
50433;SDS011;36361;38.954;-9.002;2022-11-15T08:42:12;19.50;;;2.53;;
50433;SDS011;36361;38.954;-9.002;2022-11-15T08:43:33;14.68;;;2.10;;
50433;SDS011;36361;38.954;-9.002;2022-11-15T08:44:52;13.25;;;1.75;;
50433;SDS011;36361;38.954;-9.002;2022-11-15T08:46:12;14.15;;;2.40;;
50433;SDS011;36361;38.954;-9.002;2022-11-15T08:47:32;12.40;;;1.55;;
50433;SDS011;36361;38.954;-9.002;2022-11-15T08:48:52;15.20;;;2.33;;
50433;SDS011;36361;38.954;-9.002;2022-11-15T08:50:12;17.40;;;2.60;;
50433;SDS011;36361;38.954;-9.002;2022-11-15T08:52:49;15.77;;;2.28;;
50433;SDS011;36361;38.954;-9.002;2022-11-15T08:54:09;18.63;;;2.80;;
50433;SDS011;36361;38.954;-9.002;2022-11-15T08:55:28;19.63;;;2.53;;
50433;SDS011;36361;38.954;-9.002;2022-11-15T08:56:48;15.20;;;2.88;;
50433;SDS011;36361;38.954;-9.002;2022-11-15T08:59:25;13.68;;;2.30;;
50433;SDS011;36361;38.954;-9.002;2022-11-15T09:00:45;16.52;;;2.80;;
50433;SDS011;36361;38.954;-9.002;2022-11-15T09:02:04;20.20;;;2.25;;
50433;SDS011;36361;38.954;-9.002;2022-11-15T09:03:24;11.77;;;2.40;;
50433;SDS011;36361;38.954;-9.002;2022-11-15T09:04:43;14.80;;;2.15;;
50433;SDS011;36361;38.954;-9.002;2022-11-15T09:06:02;6.40;;;1.30;;
50433;SDS011;36361;38.954;-9.002;2022-11-15T09:07:22;16.27;;;2.15;;
50433;SDS011;36361;38.954;-9.002;2022-11-15T09:10:00;10.57;;;1.70;;
50433;SDS011;36361;38.954;-9.002;2022-11-15T09:11:19;15.65;;;3.38;;
50433;SDS011;36361;38.954;-9.002;2022-11-15T09:12:40;10.98;;;2.33;;
50433;SDS011;36361;38.954;-9.002;2022-11-15T09:13:59;15.70;;;2.33;;
50433;SDS011;36361;38.954;-9.002;2022-11-15T09:15:18;21.15;;;2.75;;
50433;SDS011;36361;38.954;-9.002;2022-11-15T09:16:38;15.02;;;2.13;;
50433;SDS011;36361;38.954;-9.002;2022-11-15T09:17:58;13.15;;;1.80;;
50433;SDS011;36361;38.954;-9.002;2022-11-15T09:19:18;15.80;;;2.70;;
50433;SDS011;36361;38.954;-9.002;2022-11-15T09:21:56;13.57;;;2.03;;
50433;SDS011;36361;38.954;-9.002;2022-11-15T09:23:18;11.35;;;1.73;;
50433;SDS011;36361;38.954;-9.002;2022-11-15T09:24:37;17.90;;;2.53;;
50433;SDS011;36361;38.954;-9.002;2022-11-15T09:26:00;15.98;;;2.40;;
50433;SDS011;36361;38.954;-9.002;2022-11-15T09:27:21;13.82;;;2.10;;
50433;SDS011;36361;38.954;-9.002;2022-11-15T09:28:41;16.15;;;2.30;;
50433;SDS011;36361;38.954;-9.002;2022-11-15T09:30:00;12.02;;;1.90;;
50433;SDS011;36361;38.954;-9.002;2022-11-15T09:32:38;14.18;;;2.03;;
50433;SDS011;36361;38.954;-9.002;2022-11-15T09:33:58;13.77;;;2.38;;
50433;SDS011;36361;38.954;-9.002;2022-11-15T09:35:17;14.93;;;2.20;;
50433;SDS011;36361;38.954;-9.002;2022-11-15T09:36:36;14.02;;;2.03;;
50433;SDS011;36361;38.954;-9.002;2022-11-15T09:37:57;10.10;;;1.48;;
50433;SDS011;36361;38.954;-9.002;2022-11-15T09:39:17;5.68;;;0.82;;
50433;SDS011;36361;38.954;-9.002;2022-11-15T09:40:36;15.25;;;2.67;;
50433;SDS011;36361;38.954;-9.002;2022-11-15T09:49:57;15.25;;;2.88;;
50433;SDS011;36361;38.954;-9.002;2022-11-15T09:51:08;17.63;;;2.67;;
50433;SDS011;36361;38.954;-9.002;2022-11-15T09:52:18;15.27;;;3.20;;
50433;SDS011;36361;38.954;-9.002;2022-11-15T09:54:31;11.75;;;1.98;;
50433;SDS011;36361;38.954;-9.002;2022-11-15T09:55:40;18.95;;;2.80;;
50433;SDS011;36361;38.954;-9.002;2022-11-15T09:56:51;11.70;;;2.67;;
50433;SDS011;36361;38.954;-9.002;2022-11-15T09:57:55;9.07;;;1.30;;
50433;SDS011;36361;38.954;-9.002;2022-11-15T10:01:44;17.00;;;2.80;;
50433;SDS011;36361;38.954;-9.002;2022-11-15T10:04:04;17.52;;;2.75;;
50433;SDS011;36361;38.954;-9.002;2022-11-15T10:05:07;14.40;;;2.75;;
50433;SDS011;36361;38.954;-9.002;2022-11-15T10:06:17;17.80;;;3.00;;
50433;SDS011;36361;38.954;-9.002;2022-11-15T10:07:26;7.20;;;1.45;;
50433;SDS011;36361;38.954;-9.002;2022-11-15T10:08:36;15.52;;;2.53;;
50433;SDS011;36361;38.954;-9.002;2022-11-15T10:10:58;13.40;;;2.28;;
50433;SDS011;36361;38.954;-9.002;2022-11-15T10:12:01;16.15;;;3.53;;
50433;SDS011;36361;38.954;-9.002;2022-11-15T10:13:02;12.57;;;1.50;;
50433;SDS011;36361;38.954;-9.002;2022-11-15T10:15:15;15.55;;;2.70;;